createdAt,value
2023-05-04T00:00:01.623Z,4.40
2023-05-04T00:02:28.535Z,4.63
2023-05-04T00:04:55.356Z,5.13
2023-05-04T00:07:22.043Z,4.28
2023-05-04T00:09:49.994Z,4.72
2023-05-04T00:12:17.278Z,4.87
2023-05-04T00:14:43.970Z,4.57
2023-05-04T00:17:13.166Z,5.05
2023-05-04T00:19:42.270Z,4.90
2023-05-04T00:22:09.222Z,5.00
2023-05-04T00:24:36.001Z,5.00
2023-05-04T00:27:02.712Z,4.88
2023-05-04T00:29:29.986Z,4.80
2023-05-04T00:31:57.075Z,5.03
2023-05-04T00:34:24.088Z,5.55
2023-05-04T00:36:50.770Z,4.80
2023-05-04T00:39:17.978Z,4.88
2023-05-04T00:41:45.926Z,5.25
2023-05-04T00:44:12.694Z,5.93
2023-05-04T00:46:39.453Z,4.75
2023-05-04T00:49:07.702Z,4.70
2023-05-04T00:51:34.997Z,5.40
2023-05-04T00:54:01.800Z,4.43
2023-05-04T00:56:29.126Z,4.68
2023-05-04T00:58:57.888Z,5.30
2023-05-04T01:01:25.847Z,5.30
2023-05-04T01:03:54.275Z,5.05
2023-05-04T01:06:40.802Z,4.90
2023-05-04T01:09:22.684Z,4.70
2023-05-04T01:12:01.584Z,5.20
2023-05-04T01:16:59.244Z,5.18
2023-05-04T01:19:28.182Z,5.63
2023-05-04T01:21:56.569Z,4.78
2023-05-04T01:24:27.244Z,5.63
2023-05-04T01:27:04.645Z,5.63
2023-05-04T01:29:52.522Z,5.07
2023-05-04T01:32:21.236Z,5.43
2023-05-04T01:34:48.234Z,5.60
2023-05-04T01:37:14.998Z,5.15
2023-05-04T01:39:41.541Z,5.53
2023-05-04T01:42:08.141Z,4.93
2023-05-04T01:44:35.017Z,5.57
2023-05-04T01:47:01.759Z,5.03
2023-05-04T01:49:28.457Z,5.25
2023-05-04T01:51:55.193Z,5.13
2023-05-04T01:54:21.755Z,5.70
2023-05-04T01:56:48.420Z,5.60
2023-05-04T01:59:15.927Z,5.38
2023-05-04T02:01:42.694Z,5.25
2023-05-04T02:04:09.457Z,5.73
2023-05-04T02:06:36.303Z,5.55
2023-05-04T02:09:03.724Z,5.13
2023-05-04T02:11:30.592Z,5.47
2023-05-04T02:13:57.223Z,5.25
2023-05-04T02:16:23.871Z,5.43
2023-05-04T02:18:50.563Z,5.43
2023-05-04T02:21:17.598Z,5.55
2023-05-04T02:23:44.296Z,5.10
2023-05-04T02:26:11.254Z,5.22
2023-05-04T02:28:37.966Z,5.30
2023-05-04T02:31:04.643Z,5.40
2023-05-04T02:33:31.333Z,5.60
2023-05-04T02:35:57.984Z,5.18
2023-05-04T02:38:24.637Z,5.88
2023-05-04T02:40:51.269Z,5.67
2023-05-04T02:43:17.946Z,5.95
2023-05-04T02:45:47.110Z,5.78
2023-05-04T02:48:13.722Z,5.50
2023-05-04T02:50:40.384Z,5.80
2023-05-04T02:53:07.052Z,5.77
2023-05-04T02:55:33.646Z,5.32
2023-05-04T02:58:00.421Z,5.43
2023-05-04T03:00:27.049Z,6.25
2023-05-04T03:02:54.041Z,6.05
2023-05-04T03:05:20.822Z,5.77
2023-05-04T03:07:50.476Z,5.55
2023-05-04T03:10:19.530Z,6.25
2023-05-04T03:12:46.378Z,5.72
2023-05-04T03:15:13.020Z,5.82
2023-05-04T03:17:39.850Z,6.37
2023-05-04T03:20:08.262Z,5.97
2023-05-04T03:22:37.283Z,6.38
2023-05-04T03:25:04.197Z,5.72
2023-05-04T03:27:30.829Z,6.78
2023-05-04T03:29:57.491Z,6.27
2023-05-04T03:32:26.928Z,6.30
2023-05-04T03:34:53.577Z,6.38
2023-05-04T03:37:20.153Z,6.20
2023-05-04T03:39:46.776Z,6.53
2023-05-04T03:42:13.500Z,6.53
2023-05-04T03:44:40.090Z,6.20
2023-05-04T03:47:07.806Z,6.45
2023-05-04T03:49:35.078Z,6.28
2023-05-04T03:52:01.712Z,6.00
2023-05-04T03:54:28.357Z,6.40
2023-05-04T03:56:55.023Z,6.35
2023-05-04T03:59:21.628Z,6.40
2023-05-04T04:01:48.238Z,6.03
2023-05-04T04:04:14.868Z,6.03
2023-05-04T04:06:43.454Z,5.93
2023-05-04T04:09:10.468Z,5.70
2023-05-04T04:11:37.179Z,6.28
2023-05-04T04:14:03.810Z,6.30
2023-05-04T04:16:30.889Z,6.10
2023-05-04T04:19:01.955Z,6.37
2023-05-04T04:21:31.149Z,6.53
2023-05-04T04:23:57.898Z,6.45
2023-05-04T04:26:24.584Z,6.72
2023-05-04T04:28:51.315Z,6.07
2023-05-04T04:31:19.747Z,6.73
2023-05-04T04:33:47.980Z,6.25
2023-05-04T04:36:18.240Z,5.70
2023-05-04T04:38:47.696Z,6.05
2023-05-04T04:41:14.525Z,6.50
2023-05-04T04:43:41.185Z,6.77
2023-05-04T04:46:10.694Z,7.25
2023-05-04T04:48:37.308Z,6.57
2023-05-04T04:51:05.708Z,5.72
2023-05-04T04:53:32.346Z,6.53
2023-05-04T04:55:58.928Z,6.77
2023-05-04T04:58:25.528Z,7.05
2023-05-04T05:00:52.987Z,6.45
2023-05-04T05:03:19.950Z,7.15
2023-05-04T05:05:48.877Z,6.18
2023-05-04T05:08:16.159Z,6.70
2023-05-04T05:10:45.091Z,7.32
2023-05-04T05:13:14.192Z,6.65
2023-05-04T05:15:41.668Z,6.45
2023-05-04T05:18:08.348Z,6.97
2023-05-04T05:20:35.045Z,6.97
2023-05-04T05:23:01.690Z,6.38
2023-05-04T05:25:28.358Z,6.63
2023-05-04T05:27:54.965Z,6.85
2023-05-04T05:30:21.606Z,7.22
2023-05-04T05:32:49.449Z,6.50
2023-05-04T05:35:16.213Z,6.53
2023-05-04T05:37:42.873Z,7.22
2023-05-04T05:40:12.390Z,6.88
2023-05-04T05:42:38.986Z,6.95
2023-05-04T05:45:06.240Z,7.07
2023-05-04T05:47:32.827Z,7.10
2023-05-04T05:49:59.399Z,7.10
2023-05-04T05:52:26.046Z,7.10
2023-05-04T05:54:52.656Z,6.80
2023-05-04T05:57:20.717Z,6.53
2023-05-04T05:59:47.494Z,7.30
2023-05-04T06:02:16.599Z,7.25
2023-05-04T06:04:45.200Z,7.60
2023-05-04T06:07:13.534Z,7.05
2023-05-04T06:09:40.179Z,6.97
2023-05-04T06:12:12.281Z,7.45
2023-05-04T06:14:44.464Z,7.50
2023-05-04T06:17:11.665Z,7.13
2023-05-04T06:19:38.475Z,6.80
2023-05-04T06:22:08.311Z,7.20
2023-05-04T06:24:37.971Z,7.18
2023-05-04T06:27:04.563Z,7.18
2023-05-04T06:29:31.393Z,7.07
2023-05-04T06:31:58.722Z,7.05
2023-05-04T06:34:25.429Z,6.90
2023-05-04T06:36:52.113Z,6.72
2023-05-04T06:39:18.738Z,6.97
2023-05-04T06:41:45.555Z,7.28
2023-05-04T06:44:12.221Z,7.13
2023-05-04T06:46:38.875Z,7.20
2023-05-04T06:49:05.765Z,7.43
2023-05-04T06:51:32.582Z,6.70
2023-05-04T06:54:01.109Z,6.70
2023-05-04T06:56:27.697Z,7.13
2023-05-04T06:58:54.270Z,14.17
2023-05-04T07:01:23.250Z,17.70
2023-05-04T07:03:49.858Z,13.80
2023-05-04T07:06:16.511Z,11.98
2023-05-04T07:08:43.137Z,10.80
2023-05-04T07:11:10.478Z,11.10
2023-05-04T07:13:37.658Z,10.13
2023-05-04T07:16:07.394Z,9.45
2023-05-04T07:18:34.089Z,9.60
2023-05-04T07:21:16.315Z,8.52
2023-05-04T07:23:47.210Z,9.00
2023-05-04T07:26:13.791Z,10.18
2023-05-04T07:28:43.682Z,9.27
2023-05-04T07:31:13.145Z,9.38
2023-05-04T07:33:40.328Z,9.40
2023-05-04T07:36:07.082Z,9.60
2023-05-04T07:38:34.089Z,8.52
2023-05-04T07:41:03.188Z,9.20
2023-05-04T07:43:29.781Z,9.02
2023-05-04T07:45:56.618Z,8.75
2023-05-04T07:48:25.446Z,8.40
2023-05-04T07:50:53.837Z,7.93
2023-05-04T07:53:25.559Z,7.20
2023-05-04T07:55:54.373Z,8.48
2023-05-04T07:58:23.541Z,8.10
2023-05-04T08:00:50.122Z,9.07
2023-05-04T08:03:16.912Z,8.82
2023-05-04T08:05:43.559Z,8.35
2023-05-04T08:08:10.144Z,8.68
2023-05-04T08:10:37.601Z,9.52
2023-05-04T08:13:05.558Z,13.93
2023-05-04T08:15:32.214Z,11.90
2023-05-04T08:17:59.243Z,9.90
2023-05-04T08:20:25.952Z,10.90
2023-05-04T08:22:53.423Z,9.93
2023-05-04T08:25:20.189Z,10.43
2023-05-04T08:27:46.830Z,10.00
2023-05-04T08:30:14.162Z,9.65
2023-05-04T08:32:41.158Z,8.80
2023-05-04T08:35:11.051Z,9.27
2023-05-04T08:37:37.707Z,8.67
2023-05-04T08:40:05.822Z,8.88
2023-05-04T08:42:33.345Z,7.15
2023-05-04T08:45:00.449Z,7.78
2023-05-04T08:47:29.205Z,7.50
2023-05-04T08:49:56.708Z,8.03
2023-05-04T08:52:25.437Z,8.00
2023-05-04T08:54:56.928Z,8.30
2023-05-04T08:57:24.803Z,7.75
2023-05-04T08:59:53.825Z,7.63
2023-05-04T09:02:25.191Z,7.90
2023-05-04T09:04:53.281Z,7.00
2023-05-04T09:07:21.358Z,7.43
2023-05-04T09:09:50.832Z,7.32
2023-05-04T09:12:19.341Z,7.22
2023-05-04T09:14:49.307Z,6.87
2023-05-04T09:17:26.470Z,6.75
2023-05-04T09:20:01.192Z,6.60
2023-05-04T09:22:31.360Z,6.40
2023-05-04T09:25:07.044Z,6.57
2023-05-04T09:27:35.925Z,6.53
2023-05-04T09:30:02.574Z,6.55
2023-05-04T09:32:30.037Z,6.90
2023-05-04T09:34:57.424Z,6.25
2023-05-04T09:37:24.181Z,6.45
2023-05-04T09:39:53.904Z,5.73
2023-05-04T09:42:21.490Z,5.75
2023-05-04T09:45:03.106Z,5.78
2023-05-04T09:47:36.852Z,6.53
2023-05-04T09:50:23.293Z,6.13
2023-05-04T09:52:50.513Z,5.80
2023-05-04T09:55:20.597Z,5.88
2023-05-04T09:57:49.358Z,5.45
2023-05-04T10:00:17.409Z,5.63
2023-05-04T10:02:48.346Z,5.57
2023-05-04T10:05:21.311Z,6.40
2023-05-04T10:07:48.048Z,6.03
2023-05-04T10:10:15.232Z,6.78
2023-05-04T10:12:42.849Z,6.15
2023-05-04T10:15:11.913Z,6.53
2023-05-04T10:17:53.962Z,5.87
2023-05-04T10:20:44.336Z,5.70
2023-05-04T10:23:36.352Z,5.05
2023-05-04T10:26:30.094Z,5.53
2023-05-04T10:29:13.768Z,6.25
2023-05-04T10:31:43.984Z,5.80
2023-05-04T10:34:11.254Z,6.13
2023-05-04T10:36:39.069Z,6.30
2023-05-04T10:39:17.120Z,6.03
2023-05-04T10:41:59.309Z,6.15
2023-05-04T10:44:27.141Z,5.73
2023-05-04T10:47:05.936Z,6.68
2023-05-04T10:49:33.790Z,6.45
2023-05-04T10:52:18.294Z,5.97
2023-05-04T10:54:57.941Z,6.35
2023-05-04T10:57:24.668Z,5.87
2023-05-04T10:59:59.054Z,7.13
2023-05-04T11:02:28.771Z,7.35
2023-05-04T11:05:07.340Z,7.70
2023-05-04T11:07:39.820Z,6.63
2023-05-04T11:10:08.444Z,7.20
2023-05-04T11:12:35.922Z,6.78
2023-05-04T11:15:09.855Z,7.13
2023-05-04T11:18:05.930Z,8.73
2023-05-04T11:20:35.077Z,8.07
2023-05-04T11:23:02.114Z,6.93
2023-05-04T11:25:29.999Z,6.85
2023-05-04T11:27:57.371Z,6.95
2023-05-04T11:30:32.692Z,6.00
2023-05-04T11:33:00.553Z,6.28
2023-05-04T11:35:27.447Z,7.13
2023-05-04T11:37:55.505Z,7.28
2023-05-04T11:40:26.981Z,7.88
2023-05-04T11:42:56.956Z,8.73
2023-05-04T11:45:30.929Z,7.45
2023-05-04T11:47:58.703Z,7.80
2023-05-04T11:50:26.981Z,6.50
2023-05-04T11:53:12.335Z,7.80
2023-05-04T11:55:39.393Z,8.07
2023-05-04T11:58:08.192Z,8.02
2023-05-04T12:00:38.797Z,11.03
2023-05-04T12:03:07.200Z,7.88
2023-05-04T12:05:35.110Z,7.60
2023-05-04T12:08:03.494Z,8.35
2023-05-04T12:10:35.006Z,8.32
2023-05-04T12:13:02.513Z,8.37
2023-05-04T12:15:36.479Z,7.65
2023-05-04T12:18:03.974Z,7.03
2023-05-04T12:20:31.031Z,7.63
2023-05-04T12:22:58.293Z,7.75
2023-05-04T12:25:25.315Z,7.90
2023-05-04T12:27:52.260Z,7.88
2023-05-04T12:30:18.963Z,7.40
2023-05-04T12:32:45.953Z,7.97
2023-05-04T12:35:12.853Z,8.60
2023-05-04T12:37:39.552Z,8.47
2023-05-04T12:40:21.001Z,7.93
2023-05-04T12:42:54.803Z,9.63
2023-05-04T12:45:22.757Z,8.82
2023-05-04T12:47:49.531Z,8.38
2023-05-04T12:50:16.416Z,8.40
2023-05-04T12:52:45.351Z,8.80
2023-05-04T12:55:12.317Z,8.82
2023-05-04T12:57:39.616Z,8.48
2023-05-04T13:00:08.697Z,9.60
2023-05-04T13:02:37.893Z,8.97
2023-05-04T13:05:04.984Z,8.60
2023-05-04T13:07:31.799Z,8.07
2023-05-04T13:09:58.446Z,9.02
2023-05-04T13:12:25.602Z,8.60
2023-05-04T13:14:55.417Z,8.53
2023-05-04T13:17:22.524Z,8.50
2023-05-04T13:19:49.174Z,8.73
2023-05-04T13:22:18.048Z,8.52
2023-05-04T13:24:44.717Z,8.38
2023-05-04T13:27:11.283Z,8.67
2023-05-04T13:29:38.019Z,8.15
2023-05-04T13:32:04.702Z,8.13
2023-05-04T13:34:31.273Z,8.27
2023-05-04T13:36:58.029Z,8.02
2023-05-04T13:39:24.656Z,8.10
2023-05-04T13:41:51.409Z,7.60
2023-05-04T13:44:18.053Z,8.15
2023-05-04T13:46:45.133Z,8.27
2023-05-04T13:49:11.800Z,8.63
2023-05-04T13:51:38.453Z,8.73
2023-05-04T13:54:05.197Z,8.93
2023-05-04T13:56:31.813Z,8.02
2023-05-04T13:58:58.394Z,7.93
2023-05-04T14:01:27.262Z,8.32
2023-05-04T14:03:54.421Z,8.43
2023-05-04T14:06:23.839Z,8.55
2023-05-04T14:08:50.415Z,8.23
2023-05-04T14:11:17.101Z,8.52
2023-05-04T14:13:43.745Z,7.90
2023-05-04T14:16:12.940Z,8.40
2023-05-04T14:18:39.572Z,8.13
2023-05-04T14:21:06.183Z,7.93
2023-05-04T14:23:32.756Z,8.55
2023-05-04T14:25:59.336Z,8.50
2023-05-04T14:28:26.199Z,8.00
2023-05-04T14:30:52.883Z,8.57
2023-05-04T14:33:21.889Z,8.40
2023-05-04T14:35:51.026Z,7.93
2023-05-04T14:38:17.649Z,7.90
2023-05-04T14:40:44.273Z,7.90
2023-05-04T14:43:10.852Z,7.93
2023-05-04T14:45:37.710Z,7.70
2023-05-04T14:48:08.756Z,6.95
2023-05-04T14:50:35.412Z,6.90
2023-05-04T14:53:02.002Z,6.13
2023-05-04T14:55:28.599Z,6.30
2023-05-04T14:57:58.480Z,6.38
2023-05-04T15:00:25.152Z,5.40
2023-05-04T15:02:51.914Z,5.07
2023-05-04T15:05:19.936Z,4.53
2023-05-04T15:07:46.650Z,4.75
2023-05-04T15:10:13.734Z,3.83
2023-05-04T15:12:40.425Z,4.45
2023-05-04T15:15:08.723Z,4.07
2023-05-04T15:17:35.406Z,4.63
2023-05-04T15:20:02.489Z,3.83
2023-05-04T15:22:29.148Z,3.90
2023-05-04T15:24:56.714Z,3.80
2023-05-04T15:27:23.248Z,3.70
2023-05-04T15:29:49.893Z,3.57
2023-05-04T15:32:16.450Z,3.30
2023-05-04T15:34:50.791Z,3.47
2023-05-04T15:37:27.966Z,3.08
2023-05-04T15:39:56.069Z,3.30
2023-05-04T15:42:22.648Z,3.27
2023-05-04T15:44:49.347Z,3.65
2023-05-04T15:47:16.843Z,3.15
2023-05-04T15:49:43.469Z,3.30
2023-05-04T15:52:10.749Z,3.63
2023-05-04T15:54:37.473Z,3.30
2023-05-04T15:57:04.404Z,2.85
2023-05-04T15:59:31.168Z,3.40
2023-05-04T16:01:57.859Z,3.13
2023-05-04T16:04:24.510Z,3.08
2023-05-04T16:06:51.106Z,3.03
2023-05-04T16:09:20.774Z,3.17
2023-05-04T16:11:47.387Z,2.83
2023-05-04T16:14:14.373Z,2.70
2023-05-04T16:16:43.233Z,3.03
2023-05-04T16:19:11.537Z,2.43
2023-05-04T16:21:38.740Z,2.70
2023-05-04T16:24:07.687Z,2.80
2023-05-04T16:26:34.286Z,2.30
2023-05-04T16:29:00.972Z,2.15
2023-05-04T16:31:29.752Z,1.80
2023-05-04T16:33:56.558Z,1.95
2023-05-04T16:36:23.221Z,1.38
2023-05-04T16:38:49.944Z,5.18
2023-05-04T16:41:18.472Z,1.85
2023-05-04T16:43:45.607Z,1.90
2023-05-04T16:46:14.517Z,1.90
2023-05-04T16:48:41.301Z,1.50
2023-05-04T16:51:08.232Z,1.58
2023-05-04T16:53:37.333Z,1.08
2023-05-04T16:56:04.363Z,1.27
2023-05-04T16:58:31.049Z,1.42
2023-05-04T17:00:58.503Z,1.17
2023-05-04T17:03:27.909Z,1.05
2023-05-04T17:05:54.513Z,1.00
2023-05-04T17:08:21.092Z,0.87
2023-05-04T17:10:50.658Z,1.00
2023-05-04T17:13:19.536Z,0.85
2023-05-04T17:15:46.211Z,0.88
2023-05-04T17:18:12.783Z,0.75
2023-05-04T17:20:39.403Z,0.70
2023-05-04T17:23:06.179Z,0.70
2023-05-04T17:25:35.416Z,0.70
2023-05-04T17:28:01.984Z,0.65
2023-05-04T17:30:28.605Z,1.20
2023-05-04T17:32:57.559Z,0.83
2023-05-04T17:35:26.332Z,0.70
2023-05-04T17:37:58.469Z,0.77
2023-05-04T17:40:30.376Z,1.33
2023-05-04T17:42:57.128Z,0.63
2023-05-04T17:45:23.969Z,1.10
2023-05-04T17:47:51.296Z,0.73
2023-05-04T17:50:17.951Z,0.68
2023-05-04T17:52:44.559Z,0.75
2023-05-04T17:55:11.243Z,1.00
2023-05-04T17:57:37.894Z,1.73
2023-05-04T18:00:07.353Z,0.75
2023-05-04T18:02:36.585Z,0.65
2023-05-04T18:05:03.313Z,0.75
2023-05-04T18:07:29.945Z,0.80
2023-05-04T18:09:56.593Z,1.10
2023-05-04T18:12:23.513Z,1.00
2023-05-04T18:14:54.086Z,1.10
2023-05-04T18:17:20.819Z,0.98
2023-05-04T18:19:47.404Z,1.38
2023-05-04T18:22:14.007Z,1.27
2023-05-04T18:24:40.777Z,1.50
2023-05-04T18:27:07.348Z,1.00
2023-05-04T18:29:33.928Z,1.00
2023-05-04T18:32:01.278Z,0.82
2023-05-04T18:34:28.072Z,0.70
2023-05-04T18:36:54.713Z,0.93
2023-05-04T18:39:21.271Z,1.30
2023-05-04T18:41:47.867Z,1.40
2023-05-04T18:44:14.477Z,0.93
2023-05-04T18:46:41.120Z,1.20
2023-05-04T18:49:07.749Z,1.50
2023-05-04T18:51:34.400Z,1.50
2023-05-04T18:54:01.283Z,1.50
2023-05-04T18:56:27.891Z,1.67
2023-05-04T18:58:54.494Z,1.40
2023-05-04T19:01:22.082Z,10.30
2023-05-04T19:03:48.821Z,17.55
2023-05-04T19:06:15.567Z,13.05
2023-05-04T19:08:42.109Z,6.68
2023-05-04T19:11:09.291Z,6.93
2023-05-04T19:13:35.876Z,7.57
2023-05-04T19:16:02.508Z,6.05
2023-05-04T19:18:33.918Z,4.63
2023-05-04T19:21:04.466Z,4.63
2023-05-04T19:23:31.037Z,4.37
2023-05-04T19:25:57.956Z,4.28
2023-05-04T19:28:26.817Z,3.90
2023-05-04T19:30:55.913Z,3.80
2023-05-04T19:33:24.652Z,3.88
2023-05-04T19:35:52.893Z,3.60
2023-05-04T19:38:21.689Z,3.65
2023-05-04T19:40:48.311Z,3.53
2023-05-04T19:43:14.866Z,3.17
2023-05-04T19:45:41.453Z,3.83
2023-05-04T19:48:10.982Z,2.83
2023-05-04T19:50:39.826Z,2.50
2023-05-04T19:53:06.531Z,2.50
2023-05-04T19:55:37.878Z,2.70
2023-05-04T19:58:04.803Z,2.13
2023-05-04T20:00:31.569Z,2.20
2023-05-04T20:02:58.287Z,2.50
2023-05-04T20:05:24.914Z,1.98
2023-05-04T20:07:51.579Z,1.98
2023-05-04T20:10:18.170Z,1.95
2023-05-04T20:12:47.079Z,2.07
2023-05-04T20:15:13.887Z,2.10
2023-05-04T20:17:41.561Z,1.65
2023-05-04T20:20:09.826Z,2.17
2023-05-04T20:22:38.262Z,1.92
2023-05-04T20:25:05.287Z,1.83
2023-05-04T20:27:31.865Z,1.80
2023-05-04T20:29:58.976Z,1.77
2023-05-04T20:32:25.702Z,1.83
2023-05-04T20:34:52.354Z,1.83
2023-05-04T20:37:18.912Z,1.97
2023-05-04T20:39:45.467Z,1.90
2023-05-04T20:42:12.593Z,1.55
2023-05-04T20:44:39.149Z,1.67
2023-05-04T20:47:05.881Z,1.38
2023-05-04T20:49:32.549Z,1.50
2023-05-04T20:51:59.150Z,1.35
2023-05-04T20:54:26.002Z,1.38
2023-05-04T20:56:52.610Z,1.23
2023-05-04T20:59:19.375Z,1.33
2023-05-04T21:01:46.202Z,1.43
2023-05-04T21:04:14.894Z,0.98
2023-05-04T21:06:45.217Z,1.50
2023-05-04T21:09:15.494Z,1.55
2023-05-04T21:11:42.082Z,1.40
2023-05-04T21:14:08.702Z,1.43
2023-05-04T21:16:35.372Z,1.42
2023-05-04T21:19:02.050Z,1.60
2023-05-04T21:21:28.737Z,1.20
2023-05-04T21:23:55.389Z,2.08
2023-05-04T21:26:22.071Z,1.40
2023-05-04T21:28:51.500Z,1.40
2023-05-04T21:31:18.150Z,1.45
2023-05-04T21:33:44.824Z,1.58
2023-05-04T21:36:15.170Z,1.70
2023-05-04T21:38:42.157Z,1.70
2023-05-04T21:41:13.487Z,1.48
2023-05-04T21:43:40.657Z,1.92
2023-05-04T21:46:08.429Z,2.30
2023-05-04T21:48:35.954Z,1.67
2023-05-04T21:51:02.637Z,2.13
2023-05-04T21:53:33.510Z,2.70
2023-05-04T21:56:10.005Z,4.28
2023-05-04T21:58:40.744Z,3.33
2023-05-04T22:01:08.382Z,1.95
2023-05-04T22:03:35.476Z,2.17
2023-05-04T22:06:04.479Z,2.10
2023-05-04T22:08:31.347Z,2.05
2023-05-04T22:10:58.786Z,2.10
2023-05-04T22:13:26.148Z,1.90
2023-05-04T22:15:53.594Z,2.10
2023-05-04T22:18:20.920Z,1.90
2023-05-04T22:20:49.927Z,1.90
2023-05-04T22:23:16.763Z,1.92
2023-05-04T22:25:43.357Z,1.98
2023-05-04T22:28:10.002Z,1.60
2023-05-04T22:30:36.690Z,1.60
2023-05-04T22:33:03.504Z,1.95
2023-05-04T22:35:31.706Z,1.50
2023-05-04T22:38:00.857Z,1.90
2023-05-04T22:40:27.473Z,1.60
2023-05-04T22:42:54.018Z,1.80
2023-05-04T22:45:20.673Z,1.95
2023-05-04T22:47:47.331Z,1.90
2023-05-04T22:50:14.340Z,1.88
2023-05-04T22:52:41.336Z,1.30
2023-05-04T22:55:11.032Z,1.73
2023-05-04T22:57:37.758Z,1.63
2023-05-04T23:00:07.770Z,1.73
2023-05-04T23:02:35.258Z,1.60
2023-05-04T23:05:04.519Z,1.80
2023-05-04T23:07:31.212Z,1.40
2023-05-04T23:10:00.323Z,1.40
2023-05-04T23:12:28.037Z,1.35
2023-05-04T23:14:54.760Z,1.67
2023-05-04T23:17:24.352Z,1.93
2023-05-04T23:19:51.121Z,2.17
2023-05-04T23:22:17.750Z,1.50
2023-05-04T23:24:44.465Z,1.75
2023-05-04T23:27:13.374Z,1.88
2023-05-04T23:29:42.918Z,1.67
2023-05-04T23:32:09.769Z,1.60
2023-05-04T23:34:36.540Z,1.50
2023-05-04T23:37:03.190Z,1.73
2023-05-04T23:39:30.235Z,1.42
2023-05-04T23:41:56.862Z,1.77
2023-05-04T23:44:23.504Z,1.98
2023-05-04T23:46:50.062Z,1.92
2023-05-04T23:49:16.729Z,2.25
2023-05-04T23:51:43.397Z,1.73
2023-05-04T23:54:10.586Z,1.17
2023-05-04T23:56:37.278Z,1.65
2023-05-04T23:59:04.054Z,1.65
